Time;durP1;ratioP1;P1;durP2;ratioP2;P2;SDS_P1;SDS_P2;PMS_P1;PMS_P2;Temp;Humidity;BMP_temperature;BMP_pressure;BME280_temperature;BME280_humidity;BME280_pressure;Samples;Min_cycle;Max_cycle;Signal;HPM_P1;HPM_P2
2024/01/07 00:01:23;;;;;;;43.47;22.30;;;3.10;99.90;;;;;;5053080;28;20159;-48
2024/01/07 00:03:49;;;;;;;47.70;23.50;;;3.10;99.90;;;;;;5053271;28;20524;-49
2024/01/07 00:06:14;;;;;;;49.83;22.42;;;3.10;99.90;;;;;;5052978;28;20257;-49
2024/01/07 00:08:40;;;;;;;41.28;20.10;;;3.20;99.90;;;;;;5052803;28;20210;-49
2024/01/07 00:11:05;;;;;;;37.50;19.60;;;3.10;99.90;;;;;;5052819;28;20177;-47
2024/01/07 00:13:31;;;;;;;40.88;20.90;;;3.20;99.90;;;;;;5052530;28;20206;-48
2024/01/07 00:15:56;;;;;;;39.10;20.17;;;3.20;99.90;;;;;;5052595;28;20171;-47
2024/01/07 00:18:23;;;;;;;39.85;19.63;;;3.10;99.90;;;;;;5053043;28;20170;-48
2024/01/07 00:20:49;;;;;;;46.03;22.40;;;3.10;99.90;;;;;;5053519;28;20175;-48
2024/01/07 00:23:15;;;;;;;53.22;24.05;;;3.10;99.90;;;;;;5052892;28;20253;-48
2024/01/07 00:25:41;;;;;;;50.60;24.25;;;3.10;99.90;;;;;;5052618;28;20159;-48
2024/01/07 00:28:06;;;;;;;49.63;22.13;;;3.20;99.90;;;;;;5052595;28;20171;-48
2024/01/07 00:30:32;;;;;;;48.88;23.35;;;3.20;99.90;;;;;;5052720;28;20166;-48
2024/01/07 00:32:57;;;;;;;45.38;22.92;;;3.10;99.90;;;;;;5052584;28;20236;-48
2024/01/07 00:35:23;;;;;;;49.00;24.08;;;3.10;99.90;;;;;;5052531;28;20209;-49
2024/01/07 00:37:48;;;;;;;48.15;23.73;;;3.20;99.90;;;;;;5053028;28;20228;-48
2024/01/07 00:40:14;;;;;;;46.10;22.35;;;3.10;99.90;;;;;;5052423;28;20220;-49
2024/01/07 00:42:39;;;;;;;49.53;22.50;;;3.10;99.90;;;;;;5052058;28;20171;-51
2024/01/07 00:45:05;;;;;;;49.10;23.58;;;3.10;99.90;;;;;;5052423;28;20801;-47
2024/01/07 00:47:31;;;;;;;52.90;22.65;;;3.10;99.90;;;;;;5051901;28;20253;-48
2024/01/07 00:49:57;;;;;;;53.15;25.23;;;3.10;99.90;;;;;;5051265;28;20245;-48
2024/01/07 00:52:23;;;;;;;46.70;22.98;;;3.10;99.90;;;;;;5050438;28;20214;-48
2024/01/07 00:54:48;;;;;;;49.38;22.58;;;3.20;99.90;;;;;;5052435;28;20167;-48
2024/01/07 00:57:14;;;;;;;48.15;22.08;;;3.10;99.90;;;;;;5051654;28;20186;-49
2024/01/07 00:59:39;;;;;;;52.33;20.85;;;3.20;99.90;;;;;;5051689;28;20257;-48
2024/01/07 01:02:05;;;;;;;46.72;23.33;;;3.10;99.90;;;;;;5051407;28;20479;-52
2024/01/07 01:04:31;;;;;;;46.88;21.73;;;3.20;99.90;;;;;;5051560;28;20652;-49
2024/01/07 01:06:56;;;;;;;45.28;21.83;;;3.30;99.90;;;;;;5051605;28;20641;-51
2024/01/07 01:09:22;;;;;;;43.08;20.95;;;3.10;99.90;;;;;;5051412;28;20178;-53
2024/01/07 01:11:49;;;;;;;43.47;21.48;;;3.10;99.90;;;;;;5051330;28;20665;-48
2024/01/07 01:14:15;;;;;;;45.38;20.67;;;3.10;99.90;;;;;;5051653;28;20255;-53
2024/01/07 01:16:40;;;;;;;40.97;19.27;;;3.20;99.90;;;;;;5051276;28;20246;-53
2024/01/07 01:19:06;;;;;;;46.67;21.10;;;3.20;99.90;;;;;;5051319;28;20175;-53
2024/01/07 01:21:32;;;;;;;39.65;19.58;;;3.20;99.90;;;;;;5051543;28;20619;-51
2024/01/07 01:23:57;;;;;;;44.03;20.38;;;3.10;99.90;;;;;;5051311;28;20656;-53
2024/01/07 01:26:23;;;;;;;39.80;20.42;;;3.20;99.90;;;;;;5051618;28;20541;-51
2024/01/07 01:28:48;;;;;;;42.80;21.88;;;3.20;99.90;;;;;;5051727;28;20179;-51
2024/01/07 01:31:15;;;;;;;41.42;20.00;;;3.20;99.90;;;;;;5051335;28;20167;-48
2024/01/07 01:33:40;;;;;;;40.85;20.15;;;3.20;99.90;;;;;;5051601;28;20336;-50
2024/01/07 01:36:06;;;;;;;35.22;17.58;;;3.10;99.90;;;;;;5051479;28;20204;-49
2024/01/07 01:38:32;;;;;;;39.90;20.88;;;3.10;99.90;;;;;;5051339;28;20174;-48
2024/01/07 01:40:57;;;;;;;45.20;19.83;;;3.20;99.90;;;;;;5051379;28;20524;-49
2024/01/07 01:43:27;;;;;;;44.10;22.58;;;3.30;99.90;;;;;;5051201;28;20209;-49
2024/01/07 01:45:54;;;;;;;35.58;17.52;;;3.20;99.90;;;;;;5051341;28;20171;-49
2024/01/07 01:48:19;;;;;;;38.90;19.98;;;3.30;99.90;;;;;;5051687;28;20677;-49
2024/01/07 01:50:47;;;;;;;31.95;16.80;;;3.20;99.90;;;;;;5051205;28;20262;-49
2024/01/07 01:53:13;;;;;;;40.25;18.00;;;3.20;99.90;;;;;;5050736;28;20207;-49
2024/01/07 01:55:38;;;;;;;36.83;17.63;;;3.20;99.90;;;;;;5050510;28;20276;-48
2024/01/07 01:58:05;;;;;;;29.02;16.35;;;3.20;99.90;;;;;;5049635;28;20209;-50
2024/01/07 02:00:31;;;;;;;30.15;16.10;;;3.20;99.90;;;;;;5050460;28;20212;-51
2024/01/07 02:02:56;;;;;;;28.13;16.27;;;3.20;99.90;;;;;;5050270;28;20623;-46
2024/01/07 02:05:22;;;;;;;27.38;16.17;;;3.30;99.90;;;;;;5050389;28;20190;-49
2024/01/07 02:07:48;;;;;;;27.77;16.08;;;3.30;99.90;;;;;;5051349;28;20182;-46
2024/01/07 02:10:14;;;;;;;26.23;14.75;;;3.30;99.90;;;;;;5050357;28;20581;-48
2024/01/07 02:12:40;;;;;;;26.55;14.50;;;3.30;99.90;;;;;;5050523;28;20206;-47
2024/01/07 02:15:06;;;;;;;29.40;14.52;;;3.30;99.90;;;;;;5050439;28;20177;-49
2024/01/07 02:17:31;;;;;;;25.73;15.07;;;3.30;99.90;;;;;;5050926;28;20174;-50
2024/01/07 02:19:57;;;;;;;24.35;15.32;;;3.30;99.90;;;;;;5050409;28;20174;-46
2024/01/07 02:22:22;;;;;;;24.42;13.85;;;3.30;99.90;;;;;;5050332;28;20257;-49
2024/01/07 02:24:48;;;;;;;25.38;15.38;;;3.30;99.90;;;;;;5051169;28;20261;-47
2024/01/07 02:27:14;;;;;;;26.27;16.15;;;3.30;99.90;;;;;;5050398;28;20163;-46
2024/01/07 02:29:39;;;;;;;21.88;13.50;;;3.40;99.90;;;;;;5050445;28;20224;-47
2024/01/07 02:32:05;;;;;;;24.23;14.73;;;3.30;99.90;;;;;;5050316;28;20723;-47
2024/01/07 02:34:31;;;;;;;24.08;15.07;;;3.30;99.90;;;;;;5050047;28;20163;-48
2024/01/07 02:36:56;;;;;;;26.63;14.02;;;3.30;99.90;;;;;;5050286;28;20513;-47
2024/01/07 02:39:22;;;;;;;23.35;15.40;;;3.20;99.90;;;;;;5050072;28;20256;-46
2024/01/07 02:41:49;;;;;;;26.05;15.43;;;3.30;99.90;;;;;;5050686;28;20170;-47
2024/01/07 02:44:15;;;;;;;27.23;16.65;;;3.30;99.90;;;;;;5050194;28;20166;-52
2024/01/07 02:46:41;;;;;;;33.63;15.57;;;3.30;99.90;;;;;;5049754;28;20261;-47
2024/01/07 02:49:06;;;;;;;32.40;17.73;;;3.20;99.90;;;;;;5049717;28;20175;-46
2024/01/07 02:51:32;;;;;;;28.10;16.08;;;3.20;99.90;;;;;;5049926;28;20174;-47
2024/01/07 02:53:57;;;;;;;30.90;17.77;;;3.20;99.90;;;;;;5049984;28;20206;-47
2024/01/07 02:56:23;;;;;;;24.88;15.98;;;3.30;99.90;;;;;;5049579;28;20264;-48
2024/01/07 02:58:48;;;;;;;25.98;16.00;;;3.30;99.90;;;;;;5050459;28;20225;-49
2024/01/07 03:01:14;;;;;;;30.02;16.08;;;3.30;99.90;;;;;;5049900;28;20714;-50
2024/01/07 03:03:39;;;;;;;24.70;14.82;;;3.30;99.90;;;;;;5049536;28;20622;-49
2024/01/07 03:06:05;;;;;;;23.52;15.15;;;3.30;99.90;;;;;;5049904;28;20216;-46
2024/01/07 03:08:31;;;;;;;27.63;16.02;;;3.40;99.90;;;;;;5049484;28;20168;-47
2024/01/07 03:10:57;;;;;;;24.95;13.40;;;3.40;99.90;;;;;;5049713;28;20175;-46
2024/01/07 03:13:22;;;;;;;20.75;12.30;;;3.40;99.90;;;;;;5048464;28;20229;-46
2024/01/07 03:15:48;;;;;;;23.00;13.55;;;3.30;99.90;;;;;;5049902;28;20166;-46
2024/01/07 03:18:13;;;;;;;21.38;13.05;;;3.40;99.90;;;;;;5049800;28;20174;-46
2024/01/07 03:20:39;;;;;;;22.20;12.15;;;3.40;99.90;;;;;;5049951;28;20634;-50
2024/01/07 03:23:04;;;;;;;20.40;12.43;;;3.40;99.90;;;;;;5049791;28;20192;-46
2024/01/07 03:25:30;;;;;;;21.30;11.65;;;3.40;99.90;;;;;;5049289;28;20170;-46
2024/01/07 03:27:55;;;;;;;21.25;13.15;;;3.30;99.90;;;;;;5049672;28;20174;-47
2024/01/07 03:30:21;;;;;;;21.50;11.68;;;3.30;99.90;;;;;;5049605;28;20178;-46
2024/01/07 03:32:46;;;;;;;22.92;12.00;;;3.30;99.90;;;;;;5049636;28;20206;-46
2024/01/07 03:35:12;;;;;;;22.08;13.70;;;3.30;99.90;;;;;;5049083;28;20190;-46
2024/01/07 03:37:38;;;;;;;24.00;12.85;;;3.40;99.90;;;;;;5049361;28;20531;-46
2024/01/07 03:40:04;;;;;;;25.23;13.45;;;3.30;99.90;;;;;;5049134;28;20163;-48
2024/01/07 03:42:29;;;;;;;24.85;14.35;;;3.20;99.90;;;;;;5049059;28;20547;-48
2024/01/07 03:44:55;;;;;;;21.13;12.35;;;3.20;99.90;;;;;;5049050;28;20171;-47
2024/01/07 03:47:20;;;;;;;21.88;12.50;;;3.20;99.90;;;;;;5048203;28;20175;-47
2024/01/07 03:49:46;;;;;;;21.50;12.55;;;1.70;99.90;;;;;;5049072;28;20174;-47
2024/01/07 03:52:11;;;;;;;23.08;13.27;;;3.20;99.90;;;;;;5048921;28;20214;-48
2024/01/07 03:54:37;;;;;;;22.17;13.38;;;3.20;99.90;;;;;;5048988;28;20535;-47
2024/01/07 03:57:02;;;;;;;20.77;12.48;;;3.20;99.90;;;;;;5048826;28;20599;-47
2024/01/07 03:59:28;;;;;;;19.98;12.65;;;3.10;99.90;;;;;;5048922;28;20163;-47
2024/01/07 04:01:56;;;;;;;25.60;13.55;;;3.10;99.90;;;;;;5048878;28;20627;-48
2024/01/07 04:04:21;;;;;;;24.05;13.10;;;3.20;99.90;;;;;;5048853;28;20171;-47
2024/01/07 04:06:47;;;;;;;22.10;12.77;;;3.20;99.90;;;;;;5049690;28;20534;-47
2024/01/07 04:09:13;;;;;;;21.45;12.18;;;3.10;99.90;;;;;;5048912;28;20166;-48
2024/01/07 04:11:42;;;;;;;19.98;11.40;;;3.10;99.90;;;;;;5048796;28;20175;-47
2024/01/07 04:14:08;;;;;;;22.90;13.60;;;3.10;99.90;;;;;;5049220;28;20221;-48
2024/01/07 04:16:34;;;;;;;22.73;13.30;;;3.10;99.90;;;;;;5049438;28;20571;-47
2024/01/07 04:19:00;;;;;;;23.52;12.88;;;3.10;99.90;;;;;;5049247;28;20170;-49
2024/01/07 04:21:26;;;;;;;20.40;12.95;;;3.10;99.90;;;;;;5049333;28;20533;-49
2024/01/07 04:23:51;;;;;;;19.92;12.20;;;3.10;99.90;;;;;;5049079;28;20177;-49
2024/01/07 04:26:17;;;;;;;24.38;13.27;;;3.10;99.90;;;;;;5052648;28;20540;-49
2024/01/07 04:28:43;;;;;;;15.10;9.75;;;3.10;99.90;;;;;;5052250;28;20532;-47
2024/01/07 04:31:08;;;;;;;15.77;11.20;;;3.10;99.90;;;;;;5052444;28;20575;-50
2024/01/07 04:33:34;;;;;;;21.48;10.55;;;3.10;99.90;;;;;;5052315;28;20309;-48
2024/01/07 04:36:00;;;;;;;22.40;11.70;;;3.10;99.90;;;;;;5052303;28;20186;-48
2024/01/07 04:38:26;;;;;;;20.75;11.95;;;3.00;99.90;;;;;;5052814;28;20178;-48
2024/01/07 04:40:52;;;;;;;20.90;11.88;;;3.10;99.90;;;;;;5052506;28;20167;-50
2024/01/07 04:43:21;;;;;;;22.73;12.98;;;3.00;99.90;;;;;;5052906;28;20514;-48
2024/01/07 04:45:46;;;;;;;30.73;14.00;;;3.00;99.90;;;;;;5052981;28;20175;-49
2024/01/07 04:48:13;;;;;;;20.88;13.80;;;3.00;99.90;;;;;;5052728;28;20167;-51
2024/01/07 04:50:40;;;;;;;23.15;13.30;;;3.10;99.90;;;;;;5051116;28;20646;-50
2024/01/07 04:53:06;;;;;;;22.65;13.60;;;3.00;99.90;;;;;;5052228;28;20214;-48
2024/01/07 04:55:31;;;;;;;23.23;14.25;;;3.00;99.90;;;;;;5051999;28;20219;-52
2024/01/07 04:57:57;;;;;;;20.52;12.60;;;3.00;99.90;;;;;;5052271;28;20182;-48
2024/01/07 05:00:22;;;;;;;23.27;12.65;;;3.00;99.90;;;;;;5052004;28;20162;-51
2024/01/07 05:02:48;;;;;;;23.25;14.80;;;3.00;99.90;;;;;;5052365;28;20177;-53
2024/01/07 05:05:13;;;;;;;19.23;11.68;;;3.00;99.90;;;;;;5051213;28;20167;-50
2024/01/07 05:07:39;;;;;;;19.17;12.43;;;2.90;99.90;;;;;;5051780;28;20183;-50
2024/01/07 05:10:05;;;;;;;28.77;10.90;;;3.00;99.90;;;;;;5051501;28;20634;-49
2024/01/07 05:12:31;;;;;;;19.13;12.05;;;3.00;99.90;;;;;;5051678;28;20238;-48
2024/01/07 05:14:56;;;;;;;16.92;10.05;;;3.00;99.90;;;;;;5051360;28;20205;-50
2024/01/07 05:17:22;;;;;;;19.17;12.00;;;2.90;99.90;;;;;;5051629;28;20170;-48
2024/01/07 05:19:47;;;;;;;20.30;12.77;;;2.90;99.90;;;;;;5052323;28;20171;-48
2024/01/07 05:22:13;;;;;;;19.60;10.65;;;2.90;99.90;;;;;;5051850;28;20167;-50
2024/01/07 05:24:38;;;;;;;21.52;12.73;;;2.80;99.90;;;;;;5051225;28;20202;-48
2024/01/07 05:27:05;;;;;;;23.13;13.23;;;2.70;99.90;;;;;;5051285;28;20287;-48
2024/01/07 05:29:33;;;;;;;20.73;11.07;;;2.80;99.90;;;;;;5051153;28;20638;-46
2024/01/07 05:32:00;;;;;;;18.98;9.85;;;2.80;99.90;;;;;;5051403;28;20336;-52
2024/01/07 05:34:26;;;;;;;22.20;12.75;;;2.70;99.90;;;;;;5051418;28;20271;-50
2024/01/07 05:36:51;;;;;;;26.27;14.18;;;2.70;99.90;;;;;;5050476;28;20591;-49
2024/01/07 05:39:17;;;;;;;22.50;13.88;;;2.80;99.90;;;;;;5051362;28;20210;-49
2024/01/07 05:41:43;;;;;;;22.50;14.00;;;2.70;99.90;;;;;;5050988;28;20825;-49
2024/01/07 05:44:09;;;;;;;19.58;12.32;;;2.70;99.90;;;;;;5051144;28;20170;-49
2024/01/07 05:46:34;;;;;;;21.42;13.77;;;2.70;99.90;;;;;;5051392;28;20515;-50
2024/01/07 05:49:00;;;;;;;21.98;12.95;;;2.70;99.90;;;;;;5049969;28;20178;-48
2024/01/07 05:51:25;;;;;;;24.52;12.95;;;2.70;99.90;;;;;;5051198;28;20197;-52
2024/01/07 05:53:51;;;;;;;23.20;14.13;;;2.70;99.90;;;;;;5051031;28;20234;-48
2024/01/07 05:56:16;;;;;;;23.00;13.52;;;2.70;99.90;;;;;;5051550;28;20748;-51
2024/01/07 05:58:42;;;;;;;24.15;12.98;;;2.70;99.90;;;;;;5050950;28;20198;-48
2024/01/07 06:01:08;;;;;;;21.83;13.30;;;2.60;99.90;;;;;;5050572;28;20167;-50
2024/01/07 06:03:34;;;;;;;21.73;13.82;;;2.60;99.90;;;;;;5050850;28;20216;-51
2024/01/07 06:05:59;;;;;;;23.05;14.73;;;2.70;99.90;;;;;;5050641;28;20179;-48
2024/01/07 06:08:26;;;;;;;23.90;14.45;;;2.70;99.90;;;;;;5051067;28;20174;-51
2024/01/07 06:10:51;;;;;;;22.00;13.52;;;2.70;99.90;;;;;;5050832;28;20167;-48
2024/01/07 06:13:17;;;;;;;21.52;13.82;;;2.70;99.90;;;;;;5050768;28;20198;-52
2024/01/07 06:15:42;;;;;;;21.88;12.98;;;2.70;99.90;;;;;;5050570;28;20163;-49
2024/01/07 06:18:08;;;;;;;24.17;13.98;;;2.70;99.90;;;;;;5050527;28;20196;-48
2024/01/07 06:20:33;;;;;;;22.60;11.63;;;2.70;99.90;;;;;;5050199;28;20171;-48
2024/01/07 06:22:59;;;;;;;22.75;12.85;;;2.70;99.90;;;;;;5050674;28;20178;-49
2024/01/07 06:25:26;;;;;;;23.85;13.15;;;2.70;99.90;;;;;;5050492;28;20166;-49
2024/01/07 06:27:51;;;;;;;21.90;13.30;;;2.70;99.90;;;;;;5050535;28;20171;-48
2024/01/07 06:30:19;;;;;;;19.10;11.95;;;2.60;99.90;;;;;;5050956;28;20173;-49
2024/01/07 06:32:45;;;;;;;22.40;13.77;;;2.50;99.90;;;;;;5050303;28;20206;-49
2024/01/07 06:35:11;;;;;;;21.67;12.55;;;2.50;99.90;;;;;;5050138;28;20181;-50
2024/01/07 06:37:36;;;;;;;22.90;14.60;;;2.50;99.90;;;;;;5050409;28;20285;-49
2024/01/07 06:40:03;;;;;;;20.15;13.20;;;2.50;99.90;;;;;;5050354;28;20177;-48
2024/01/07 06:42:28;;;;;;;23.73;15.20;;;2.60;99.90;;;;;;5050258;28;20175;-49
2024/01/07 06:44:54;;;;;;;37.30;15.63;;;2.60;99.90;;;;;;5050195;28;20173;-49
2024/01/07 06:47:19;;;;;;;21.83;14.10;;;2.60;99.90;;;;;;5050439;28;20261;-51
2024/01/07 06:49:45;;;;;;;28.58;16.05;;;2.50;99.90;;;;;;5048874;28;20622;-50
2024/01/07 06:52:10;;;;;;;21.60;13.02;;;2.50;99.90;;;;;;5049572;28;20673;-51
2024/01/07 06:54:36;;;;;;;24.10;15.18;;;2.50;99.90;;;;;;5049770;28;20174;-48
2024/01/07 06:57:02;;;;;;;24.33;14.85;;;2.50;99.90;;;;;;5049842;28;20242;-48
2024/01/07 06:59:28;;;;;;;19.80;10.90;;;2.50;99.90;;;;;;5049718;28;20229;-49
2024/01/07 07:01:55;;;;;;;25.38;16.55;;;2.40;99.90;;;;;;5049532;28;20193;-48
2024/01/07 07:04:21;;;;;;;25.58;15.38;;;2.40;99.90;;;;;;5049554;28;20189;-47
2024/01/07 07:06:47;;;;;;;26.02;14.80;;;2.50;99.90;;;;;;5049996;28;20175;-48
2024/01/07 07:09:14;;;;;;;18.85;12.35;;;2.50;99.90;;;;;;5049581;28;20162;-47
2024/01/07 07:11:40;;;;;;;12.15;7.18;;;2.40;99.90;;;;;;5049286;28;20159;-48
2024/01/07 07:14:06;;;;;;;25.83;13.95;;;2.30;99.90;;;;;;5049460;28;20173;-47
2024/01/07 07:16:31;;;;;;;20.95;12.15;;;2.30;99.90;;;;;;5049347;28;20166;-48
2024/01/07 07:18:57;;;;;;;26.77;15.48;;;2.20;99.90;;;;;;5049794;28;20302;-47
2024/01/07 07:21:23;;;;;;;26.67;15.18;;;2.30;99.90;;;;;;5049376;28;20177;-48
2024/01/07 07:23:48;;;;;;;22.85;14.30;;;2.30;99.90;;;;;;5050196;28;20170;-48
2024/01/07 07:26:14;;;;;;;25.23;14.45;;;2.30;99.90;;;;;;5049570;28;20178;-48
2024/01/07 07:28:39;;;;;;;23.65;14.57;;;2.30;99.90;;;;;;5048024;28;20170;-48
2024/01/07 07:31:05;;;;;;;23.90;14.52;;;2.30;99.90;;;;;;5049392;28;20174;-48
2024/01/07 07:33:30;;;;;;;23.98;15.02;;;2.30;99.90;;;;;;5049499;28;20214;-48
2024/01/07 07:35:56;;;;;;;21.23;12.45;;;2.30;99.90;;;;;;5049644;28;20171;-47
2024/01/07 07:38:21;;;;;;;23.23;14.68;;;2.30;99.90;;;;;;5049514;28;20242;-47
2024/01/07 07:40:52;;;;;;;23.05;14.45;;;2.30;99.90;;;;;;5050100;28;20174;-54
2024/01/07 07:43:19;;;;;;;22.67;13.18;;;2.30;99.90;;;;;;5049787;28;20178;-49
2024/01/07 07:45:44;;;;;;;21.98;12.80;;;2.20;99.90;;;;;;5049449;28;20194;-49
2024/01/07 07:48:10;;;;;;;25.10;15.93;;;2.20;99.90;;;;;;5049298;28;20213;-48
2024/01/07 07:50:35;;;;;;;23.80;14.20;;;2.20;99.90;;;;;;5049674;28;20167;-49
2024/01/07 07:53:01;;;;;;;21.92;14.13;;;2.30;99.90;;;;;;5049306;28;20234;-48
2024/01/07 07:55:28;;;;;;;21.27;13.27;;;2.20;99.90;;;;;;5048751;28;20238;-49
2024/01/07 07:57:54;;;;;;;22.00;13.13;;;2.30;99.90;;;;;;5049538;28;20178;-49
2024/01/07 08:00:19;;;;;;;24.30;13.70;;;2.30;99.90;;;;;;5051417;28;20538;-48
2024/01/07 08:02:45;;;;;;;25.02;16.17;;;2.30;99.90;;;;;;5052893;28;20586;-49
2024/01/07 08:05:11;;;;;;;24.40;14.63;;;2.30;99.90;;;;;;5053000;28;20178;-49
2024/01/07 08:07:36;;;;;;;26.92;17.15;;;2.30;99.90;;;;;;5052724;28;20185;-48
2024/01/07 08:10:02;;;;;;;22.05;13.68;;;2.30;99.90;;;;;;5052778;28;20167;-49
2024/01/07 08:12:28;;;;;;;18.17;12.02;;;2.30;99.90;;;;;;5053122;28;20218;-48
2024/01/07 08:14:53;;;;;;;19.63;11.65;;;2.30;99.90;;;;;;5052955;28;20174;-48
2024/01/07 08:17:19;;;;;;;25.05;15.52;;;2.30;99.90;;;;;;5052937;28;20872;-49
2024/01/07 08:19:45;;;;;;;15.30;8.40;;;2.20;99.90;;;;;;5052791;28;20657;-49
2024/01/07 08:22:10;;;;;;;25.10;13.10;;;2.20;99.90;;;;;;5052568;28;20173;-48
2024/01/07 08:24:36;;;;;;;23.63;13.52;;;2.30;99.90;;;;;;5052061;28;20206;-49
2024/01/07 08:27:02;;;;;;;26.00;14.27;;;2.20;99.90;;;;;;5052484;28;20249;-47
2024/01/07 08:29:28;;;;;;;23.25;13.55;;;2.30;99.90;;;;;;5052238;28;20185;-48
2024/01/07 08:31:54;;;;;;;22.75;12.88;;;2.20;99.90;;;;;;5052133;28;20167;-48
2024/01/07 08:34:19;;;;;;;23.25;13.80;;;2.20;99.90;;;;;;5052663;28;20201;-46
2024/01/07 08:36:45;;;;;;;21.92;12.57;;;2.20;99.90;;;;;;5052284;28;20653;-49
2024/01/07 08:39:11;;;;;;;25.55;15.65;;;2.10;99.90;;;;;;5052506;28;20249;-48
2024/01/07 08:41:36;;;;;;;22.13;12.23;;;2.20;99.90;;;;;;5052260;28;20242;-48
2024/01/07 08:44:02;;;;;;;27.98;14.85;;;2.10;99.90;;;;;;5050708;28;20326;-47
2024/01/07 08:46:28;;;;;;;27.05;14.57;;;2.10;99.90;;;;;;5052338;28;20178;-48
2024/01/07 08:48:53;;;;;;;24.17;14.70;;;2.10;99.90;;;;;;5051176;28;20198;-47
2024/01/07 08:51:19;;;;;;;26.80;17.13;;;2.10;99.90;;;;;;5052790;28;20531;-48
2024/01/07 08:53:44;;;;;;;26.00;15.88;;;2.30;99.90;;;;;;5052296;28;20681;-47
2024/01/07 08:56:11;;;;;;;27.23;16.95;;;2.20;99.90;;;;;;5051999;28;20795;-47
2024/01/07 08:58:37;;;;;;;26.83;14.70;;;2.20;99.90;;;;;;5051999;28;20173;-47
2024/01/07 09:01:02;;;;;;;28.85;17.85;;;2.20;99.90;;;;;;5051785;28;20174;-48
2024/01/07 09:03:28;;;;;;;24.70;13.57;;;2.10;99.90;;;;;;5051653;28;20173;-48
2024/01/07 09:05:54;;;;;;;23.50;14.57;;;2.10;99.90;;;;;;5051681;28;20664;-47
2024/01/07 09:08:19;;;;;;;24.10;13.80;;;2.10;99.90;;;;;;5051874;28;20895;-48
2024/01/07 09:10:45;;;;;;;25.13;14.57;;;2.00;99.90;;;;;;5051401;28;20597;-49
2024/01/07 09:13:10;;;;;;;21.08;12.18;;;2.10;99.90;;;;;;5050551;28;20214;-47
2024/01/07 09:15:36;;;;;;;22.75;13.00;;;2.00;99.90;;;;;;5051385;28;20261;-48
2024/01/07 09:18:01;;;;;;;22.08;13.52;;;2.10;99.90;;;;;;5051424;28;20202;-49
2024/01/07 09:20:27;;;;;;;22.00;11.38;;;2.00;99.90;;;;;;5051498;28;20174;-50
2024/01/07 09:22:53;;;;;;;29.70;15.98;;;2.00;99.90;;;;;;5051374;28;20162;-50
2024/01/07 09:25:18;;;;;;;27.17;16.58;;;2.00;99.90;;;;;;5051539;28;20162;-49
2024/01/07 09:27:44;;;;;;;16.45;10.27;;;2.00;99.90;;;;;;5051781;28;20171;-50
2024/01/07 09:30:11;;;;;;;22.50;12.88;;;2.00;99.90;;;;;;5051568;28;20171;-48
2024/01/07 09:32:37;;;;;;;25.27;15.38;;;1.90;99.90;;;;;;5051606;28;20202;-48
2024/01/07 09:35:05;;;;;;;22.20;15.32;;;1.90;99.90;;;;;;5051271;28;20170;-48
2024/01/07 09:37:31;;;;;;;19.58;11.38;;;1.90;99.90;;;;;;5051742;28;20166;-48
2024/01/07 09:39:56;;;;;;;22.67;14.93;;;1.80;99.90;;;;;;5051466;28;20182;-48
2024/01/07 09:42:22;;;;;;;24.27;14.38;;;1.90;99.90;;;;;;5051655;28;20174;-48
2024/01/07 09:44:50;;;;;;;17.02;10.88;;;1.90;99.90;;;;;;5051210;28;20630;-48
2024/01/07 09:47:16;;;;;;;19.35;13.68;;;1.80;99.90;;;;;;5051238;28;20661;-48
2024/01/07 09:49:42;;;;;;;19.08;12.70;;;1.90;99.90;;;;;;5050890;28;20178;-48
2024/01/07 09:52:10;;;;;;;12.93;8.68;;;1.90;99.90;;;;;;5050940;28;20206;-49
2024/01/07 09:54:40;;;;;;;12.75;8.27;;;2.00;99.90;;;;;;5050777;28;20208;-49
2024/01/07 09:57:07;;;;;;;11.23;8.25;;;1.90;99.90;;;;;;5050886;28;20591;-48
2024/01/07 09:59:34;;;;;;;16.40;9.10;;;1.80;99.90;;;;;;5050939;28;20249;-48
2024/01/07 10:02:00;;;;;;;12.50;8.10;;;1.80;99.90;;;;;;5050814;28;20174;-48
2024/01/07 10:04:30;;;;;;;13.13;5.90;;;1.80;99.90;;;;;;5050817;28;20219;-49
2024/01/07 10:06:56;;;;;;;11.48;7.70;;;1.70;99.90;;;;;;5050788;28;20166;-48
2024/01/07 10:09:29;;;;;;;9.07;5.07;;;1.80;99.90;;;;;;5050334;28;20167;-48
2024/01/07 10:11:54;;;;;;;9.88;7.20;;;1.70;99.90;;;;;;5050392;28;20181;-49
2024/01/07 10:14:22;;;;;;;7.38;5.25;;;1.70;99.90;;;;;;5051007;28;20640;-48
2024/01/07 10:16:50;;;;;;;12.07;7.32;;;2.50;99.90;;;;;;5050764;28;20163;-49
2024/01/07 10:19:23;;;;;;;12.23;8.27;;;1.70;99.90;;;;;;5050924;28;20179;-49
2024/01/07 10:22:03;;;;;;;13.52;9.73;;;1.60;99.90;;;;;;5050561;28;20151;-51
2024/01/07 10:24:39;;;;;;;11.02;9.00;;;1.80;99.90;;;;;;5050131;28;20253;-51
2024/01/07 10:27:05;;;;;;;15.07;9.90;;;1.70;99.90;;;;;;5048980;28;20167;-54
2024/01/07 10:29:32;;;;;;;12.90;8.65;;;1.80;99.90;;;;;;5050117;28;20178;-54
2024/01/07 10:31:59;;;;;;;11.75;8.43;;;1.80;99.90;;;;;;5048425;28;20571;-53
2024/01/07 10:34:26;;;;;;;18.08;11.57;;;1.80;99.90;;;;;;5050049;28;20186;-55
2024/01/07 10:36:54;;;;;;;12.25;9.07;;;1.90;99.90;;;;;;5049855;28;20163;-52
2024/01/07 10:39:20;;;;;;;21.05;12.35;;;1.90;99.90;;;;;;5050170;28;20231;-54
2024/01/07 10:41:47;;;;;;;15.98;10.05;;;3.20;99.90;;;;;;5050368;28;20254;-49
2024/01/07 10:44:13;;;;;;;15.27;10.05;;;1.80;99.90;;;;;;5049827;28;20194;-49
2024/01/07 10:46:40;;;;;;;17.42;9.98;;;1.80;99.90;;;;;;5050028;28;20251;-48
2024/01/07 10:49:14;;;;;;;15.20;9.45;;;1.70;99.90;;;;;;5032277;28;20174;-48
2024/01/07 10:51:41;;;;;;;13.85;9.50;;;1.80;99.90;;;;;;5050282;28;20174;-48
2024/01/07 10:54:08;;;;;;;12.38;8.23;;;1.70;99.90;;;;;;5049978;28;20669;-49
2024/01/07 10:56:43;;;;;;;12.95;8.30;;;1.70;99.90;;;;;;5049848;28;20230;-49
2024/01/07 10:59:09;;;;;;;15.00;10.30;;;1.70;99.90;;;;;;5049959;28;20173;-49
2024/01/07 11:01:35;;;;;;;14.88;9.82;;;1.80;99.90;;;;;;5049997;28;20170;-49
2024/01/07 11:04:24;;;;;;;17.67;10.85;;;1.80;99.90;;;;;;5048431;28;20271;-50
2024/01/07 11:06:57;;;;;;;16.63;10.05;;;1.90;99.90;;;;;;5039393;28;20650;-48
2024/01/07 11:09:41;;;;;;;16.17;9.82;;;2.00;99.90;;;;;;5049135;28;20265;-48
2024/01/07 11:12:07;;;;;;;8.32;6.75;;;1.90;99.90;;;;;;5049272;28;20177;-48
2024/01/07 11:14:42;;;;;;;13.55;8.68;;;2.00;99.90;;;;;;5049310;28;20182;-49
2024/01/07 11:17:07;;;;;;;10.93;7.63;;;2.00;99.90;;;;;;5049639;28;20166;-48
2024/01/07 11:19:35;;;;;;;10.43;7.03;;;1.90;99.90;;;;;;5049916;28;20194;-48
2024/01/07 11:22:27;;;;;;;10.00;7.13;;;1.90;99.90;;;;;;5049657;28;20174;-54
2024/01/07 11:24:55;;;;;;;14.82;8.90;;;1.90;99.90;;;;;;5049081;28;20540;-54
2024/01/07 11:27:25;;;;;;;13.32;7.40;;;1.90;99.90;;;;;;5048799;28;20166;-52
2024/01/07 11:30:00;;;;;;;12.73;8.13;;;1.90;99.90;;;;;;5049205;28;20162;-51
2024/01/07 11:32:29;;;;;;;12.00;8.35;;;1.90;99.90;;;;;;5049665;28;20291;-52
2024/01/07 11:34:56;;;;;;;9.50;5.70;;;1.90;99.90;;;;;;5050776;28;20201;-52
2024/01/07 11:37:22;;;;;;;11.27;7.30;;;1.90;99.90;;;;;;5053592;28;20179;-51
2024/01/07 11:39:51;;;;;;;15.25;8.43;;;1.90;99.90;;;;;;5054412;28;20178;-48
2024/01/07 11:42:17;;;;;;;11.50;7.13;;;2.00;99.90;;;;;;5053981;28;20174;-48
2024/01/07 11:44:48;;;;;;;12.15;7.72;;;1.90;99.90;;;;;;5053108;28;20258;-50
2024/01/07 11:47:15;;;;;;;13.70;9.30;;;1.90;99.90;;;;;;5053175;28;20167;-48
2024/01/07 11:49:40;;;;;;;13.80;8.57;;;1.90;99.90;;;;;;5053608;28;20163;-48
2024/01/07 11:52:06;;;;;;;13.02;7.45;;;1.90;99.90;;;;;;5053195;28;20167;-49
2024/01/07 11:54:32;;;;;;;11.07;7.78;;;1.80;99.90;;;;;;5052590;28;20177;-48
2024/01/07 11:56:58;;;;;;;10.13;7.28;;;1.80;99.90;;;;;;5053115;28;20214;-51
2024/01/07 11:59:23;;;;;;;7.03;5.03;;;1.80;99.90;;;;;;5052078;28;20178;-47
2024/01/07 12:01:49;;;;;;;8.57;6.03;;;1.70;99.90;;;;;;5053558;28;20175;-48
2024/01/07 12:04:14;;;;;;;10.65;6.57;;;1.80;99.90;;;;;;5053368;28;20179;-49
2024/01/07 12:06:40;;;;;;;7.60;4.95;;;1.80;99.90;;;;;;5053047;28;20650;-47
2024/01/07 12:09:06;;;;;;;13.35;7.63;;;1.80;99.90;;;;;;5053069;28;20254;-48
2024/01/07 12:11:32;;;;;;;5.93;4.85;;;1.80;99.90;;;;;;5052827;28;20179;-49
2024/01/07 12:13:58;;;;;;;9.32;6.55;;;1.70;99.90;;;;;;5052719;28;20316;-48
2024/01/07 12:16:24;;;;;;;10.73;5.65;;;1.70;99.90;;;;;;5053113;28;20208;-48
2024/01/07 12:18:50;;;;;;;7.70;4.97;;;1.60;99.90;;;;;;5053419;28;20200;-49
2024/01/07 12:21:22;;;;;;;10.35;5.68;;;1.60;99.90;;;;;;5053204;28;20167;-49
2024/01/07 12:23:50;;;;;;;9.45;5.47;;;1.60;99.90;;;;;;5053589;28;20178;-49
2024/01/07 12:26:16;;;;;;;6.80;4.43;;;1.70;99.90;;;;;;5052624;28;20186;-48
2024/01/07 12:28:44;;;;;;;9.07;5.65;;;1.60;99.90;;;;;;5052902;28;20171;-48
2024/01/07 12:31:09;;;;;;;11.35;6.28;;;1.60;99.90;;;;;;5052648;28;20574;-48
2024/01/07 12:33:37;;;;;;;9.70;6.30;;;1.60;99.90;;;;;;5052097;28;20206;-49